createdAt,value
2024-01-10T00:00:43.864Z,36.33
2024-01-10T00:01:43.913Z,36.33
2024-01-10T00:02:43.962Z,36.34
2024-01-10T00:03:44.027Z,36.32
2024-01-10T00:04:44.120Z,36.33
2024-01-10T00:05:44.294Z,36.33
2024-01-10T00:06:44.239Z,36.32
2024-01-10T00:07:44.286Z,36.32
2024-01-10T00:08:44.317Z,36.31
2024-01-10T00:09:44.388Z,36.33
2024-01-10T00:10:44.483Z,36.35
2024-01-10T00:11:44.505Z,36.30
2024-01-10T00:12:44.580Z,36.33
2024-01-10T00:13:44.690Z,36.29
2024-01-10T00:14:44.717Z,36.34
2024-01-10T00:15:44.763Z,36.31
2024-01-10T00:16:44.845Z,36.29
2024-01-10T00:17:44.916Z,36.29
2024-01-10T00:18:44.966Z,36.31
2024-01-10T00:19:45.012Z,36.32
2024-01-10T00:20:45.048Z,36.27
2024-01-10T00:21:45.116Z,36.29
2024-01-10T00:22:45.274Z,36.30
2024-01-10T00:23:45.239Z,36.29
2024-01-10T00:24:45.286Z,36.30
2024-01-10T00:25:45.370Z,36.29
2024-01-10T00:26:45.416Z,36.30
2024-01-10T00:27:45.467Z,36.29
2024-01-10T00:28:45.531Z,36.26
2024-01-10T00:29:45.590Z,36.29
2024-01-10T00:30:45.662Z,36.29
2024-01-10T00:31:45.701Z,36.29
2024-01-10T00:32:45.847Z,36.28
2024-01-10T00:33:45.911Z,36.27
2024-01-10T00:34:45.953Z,36.29
2024-01-10T00:35:45.918Z,36.28
2024-01-10T00:36:45.989Z,36.27
2024-01-10T00:37:46.080Z,36.27
2024-01-10T00:38:46.116Z,36.29
2024-01-10T00:39:46.177Z,36.29
2024-01-10T00:40:46.318Z,36.29
2024-01-10T00:41:46.307Z,36.28
2024-01-10T00:42:46.394Z,36.28
2024-01-10T00:43:46.473Z,36.25
2024-01-10T00:44:46.498Z,36.27
2024-01-10T00:45:46.693Z,36.26
2024-01-10T00:46:46.647Z,36.26
2024-01-10T00:47:46.776Z,36.27
2024-01-10T00:48:46.765Z,36.27
2024-01-10T00:49:46.823Z,36.26
2024-01-10T00:50:46.907Z,36.25
2024-01-10T00:51:46.944Z,36.26
2024-01-10T00:52:47.045Z,36.30
2024-01-10T00:53:47.077Z,36.29
2024-01-10T00:54:47.137Z,36.29
2024-01-10T00:55:47.256Z,36.24
2024-01-10T00:56:47.276Z,36.26
2024-01-10T00:57:47.334Z,36.23
2024-01-10T00:58:47.426Z,36.24
2024-01-10T00:59:47.525Z,36.24
2024-01-10T01:00:47.612Z,36.24
2024-01-10T01:01:47.722Z,36.24
2024-01-10T01:02:47.674Z,36.23
2024-01-10T01:03:47.798Z,36.23
2024-01-10T01:04:47.879Z,36.22
2024-01-10T01:05:47.918Z,36.26
2024-01-10T01:06:47.910Z,36.24
2024-01-10T01:07:48.052Z,36.24
2024-01-10T01:08:48.039Z,36.23
2024-01-10T01:09:48.113Z,36.26
2024-01-10T01:10:48.235Z,36.24
2024-01-10T01:11:48.237Z,36.26
2024-01-10T01:12:48.301Z,36.23
2024-01-10T01:13:48.421Z,36.21
2024-01-10T01:14:48.428Z,36.23
2024-01-10T01:15:48.495Z,36.24
2024-01-10T01:16:48.629Z,36.20
2024-01-10T01:17:48.691Z,36.24
2024-01-10T01:18:48.728Z,36.21
2024-01-10T01:19:48.797Z,36.20
2024-01-10T01:20:48.832Z,36.22
2024-01-10T01:21:48.902Z,36.20
2024-01-10T01:22:48.997Z,36.23
2024-01-10T01:23:49.118Z,36.20
2024-01-10T01:24:49.085Z,36.23
2024-01-10T01:25:49.169Z,36.22
2024-01-10T01:26:49.215Z,36.20
2024-01-10T01:27:49.271Z,36.22
2024-01-10T01:28:49.360Z,36.20
2024-01-10T01:29:49.393Z,36.19
2024-01-10T01:30:49.488Z,36.19
2024-01-10T01:31:49.530Z,36.19
2024-01-10T01:32:49.598Z,36.20
2024-01-10T01:33:49.752Z,36.17
2024-01-10T01:34:49.733Z,36.19
2024-01-10T01:35:49.774Z,36.18
2024-01-10T01:36:49.834Z,36.17
2024-01-10T01:37:49.952Z,36.18
2024-01-10T01:38:49.980Z,36.20
2024-01-10T01:39:50.030Z,36.22
2024-01-10T01:40:50.128Z,36.21
2024-01-10T01:41:50.132Z,36.20
2024-01-10T01:42:50.192Z,36.20
2024-01-10T01:43:50.336Z,36.24
2024-01-10T01:44:50.288Z,36.20
2024-01-10T01:45:50.340Z,36.21
2024-01-10T01:46:50.401Z,36.21
2024-01-10T01:47:50.508Z,36.22
2024-01-10T01:48:50.634Z,36.20
2024-01-10T01:49:50.689Z,36.19
2024-01-10T01:50:50.696Z,36.20
2024-01-10T01:51:50.716Z,36.19
2024-01-10T01:52:50.812Z,36.19
2024-01-10T01:53:50.865Z,36.16
2024-01-10T01:54:50.923Z,36.17
2024-01-10T01:55:51.012Z,36.19
2024-01-10T01:56:51.057Z,36.16
2024-01-10T01:57:51.117Z,36.16
2024-01-10T01:58:51.233Z,36.19
2024-01-10T01:59:51.268Z,36.16
2024-01-10T02:00:51.384Z,36.16
2024-01-10T02:01:51.449Z,36.15
2024-01-10T02:02:51.586Z,36.18
2024-01-10T02:03:51.567Z,36.19
2024-01-10T02:04:51.659Z,36.18
2024-01-10T02:05:51.735Z,36.18
2024-01-10T02:06:51.792Z,36.16
2024-01-10T02:07:51.878Z,36.16
2024-01-10T02:08:51.900Z,36.15
2024-01-10T02:09:51.966Z,36.15
2024-01-10T02:10:52.122Z,36.16
2024-01-10T02:11:52.100Z,36.16
2024-01-10T02:12:52.155Z,36.16
2024-01-10T02:13:52.238Z,36.15
2024-01-10T02:14:52.288Z,36.17
2024-01-10T02:15:52.451Z,36.16
2024-01-10T02:16:52.477Z,36.17
2024-01-10T02:17:52.591Z,36.16
2024-01-10T02:18:52.566Z,36.16
2024-01-10T02:19:52.639Z,36.11
2024-01-10T02:20:52.686Z,36.14
2024-01-10T02:21:52.771Z,36.12
2024-01-10T02:22:52.854Z,36.15
2024-01-10T02:23:52.897Z,36.12
2024-01-10T02:24:52.969Z,36.13
2024-01-10T02:25:53.046Z,36.13
2024-01-10T02:26:53.091Z,36.14
2024-01-10T02:27:53.157Z,36.15
2024-01-10T02:28:53.233Z,36.14
2024-01-10T02:29:53.286Z,36.15
2024-01-10T02:30:53.448Z,36.14
2024-01-10T02:31:53.444Z,36.14
2024-01-10T02:32:53.498Z,36.12
2024-01-10T02:33:53.537Z,36.13
2024-01-10T02:34:53.598Z,36.12
2024-01-10T02:35:53.652Z,36.14
2024-01-10T02:36:53.718Z,36.13
2024-01-10T02:37:53.905Z,36.14
2024-01-10T02:38:53.857Z,36.14
2024-01-10T02:39:53.936Z,36.12
2024-01-10T02:40:54.001Z,36.15
2024-01-10T02:41:54.059Z,36.14
2024-01-10T02:42:54.118Z,36.13
2024-01-10T02:43:54.217Z,36.13
2024-01-10T02:44:54.273Z,36.12
2024-01-10T02:45:54.318Z,36.14
2024-01-10T02:46:54.392Z,36.13
2024-01-10T02:47:54.524Z,36.15
2024-01-10T02:48:54.550Z,36.13
2024-01-10T02:49:54.612Z,36.13
2024-01-10T02:50:54.638Z,36.14
2024-01-10T02:51:54.716Z,36.12
2024-01-10T02:52:54.795Z,36.15
2024-01-10T02:53:54.889Z,36.14
2024-01-10T02:54:54.913Z,36.14
2024-01-10T02:55:55.004Z,36.15
2024-01-10T02:56:55.047Z,36.15
2024-01-10T02:57:55.114Z,36.11
2024-01-10T02:58:55.215Z,36.13
2024-01-10T02:59:55.237Z,36.14
2024-01-10T03:00:55.381Z,36.14
2024-01-10T03:01:55.425Z,36.12
2024-01-10T03:02:55.437Z,36.08
2024-01-10T03:03:55.549Z,36.11
2024-01-10T03:04:55.577Z,36.09
2024-01-10T03:05:55.587Z,36.10
2024-01-10T03:06:55.628Z,36.11
2024-01-10T03:07:55.707Z,36.10
2024-01-10T03:08:55.742Z,36.10
2024-01-10T03:09:55.802Z,36.10
2024-01-10T03:10:55.910Z,36.10
2024-01-10T03:11:55.969Z,36.08
2024-01-10T03:12:56.017Z,36.09
2024-01-10T03:13:56.128Z,36.07
2024-01-10T03:14:56.156Z,36.08
2024-01-10T03:15:56.230Z,36.06
2024-01-10T03:16:56.348Z,36.07
2024-01-10T03:17:56.532Z,36.08
2024-01-10T03:18:56.484Z,36.09
2024-01-10T03:19:56.520Z,36.09
2024-01-10T03:20:56.556Z,36.08
2024-01-10T03:21:56.624Z,36.08
2024-01-10T03:22:56.738Z,36.06
2024-01-10T03:23:56.743Z,36.09
2024-01-10T03:24:56.817Z,36.09
2024-01-10T03:25:56.915Z,36.08
2024-01-10T03:26:56.937Z,36.06
2024-01-10T03:27:57.011Z,36.08
2024-01-10T03:28:57.080Z,36.07
2024-01-10T03:29:57.138Z,36.07
2024-01-10T03:30:57.303Z,36.09
2024-01-10T03:31:57.324Z,36.07
2024-01-10T03:32:57.431Z,36.06
2024-01-10T03:33:57.490Z,36.07
2024-01-10T03:34:57.493Z,36.06
2024-01-10T03:35:57.521Z,36.05
2024-01-10T03:36:57.605Z,36.05
2024-01-10T03:37:57.697Z,36.09
2024-01-10T03:38:57.721Z,36.05
2024-01-10T03:39:57.785Z,36.07
2024-01-10T03:40:57.876Z,36.07
2024-01-10T03:41:57.912Z,36.05
2024-01-10T03:42:57.984Z,36.06
2024-01-10T03:43:58.069Z,36.09
2024-01-10T03:44:58.109Z,36.08
2024-01-10T03:45:58.146Z,36.07
2024-01-10T03:46:58.252Z,36.08
2024-01-10T03:47:58.317Z,36.04
2024-01-10T03:48:58.386Z,36.07
2024-01-10T03:49:58.439Z,36.07
2024-01-10T03:50:58.480Z,36.07
2024-01-10T03:51:58.545Z,36.07
2024-01-10T03:52:58.620Z,36.06
2024-01-10T03:53:58.683Z,36.07
2024-01-10T03:54:58.779Z,36.08
2024-01-10T03:55:58.868Z,36.05
2024-01-10T03:56:58.861Z,36.08
2024-01-10T03:57:58.927Z,36.07
2024-01-10T03:58:59.030Z,36.07
2024-01-10T03:59:59.068Z,36.08
2024-01-10T04:00:59.152Z,36.09
2024-01-10T04:01:59.270Z,36.06
2024-01-10T04:02:59.301Z,36.04
2024-01-10T04:03:59.352Z,36.08
2024-01-10T04:04:59.481Z,36.05
2024-01-10T04:05:59.506Z,36.05
2024-01-10T04:06:59.586Z,36.03
2024-01-10T04:07:59.654Z,36.02
2024-01-10T04:08:59.686Z,36.01
2024-01-10T04:09:59.787Z,35.98
2024-01-10T04:10:59.885Z,35.98
2024-01-10T04:11:59.857Z,35.95
2024-01-10T04:12:59.935Z,35.94
2024-01-10T04:14:00.026Z,35.93
2024-01-10T04:15:00.058Z,35.91
2024-01-10T04:16:00.125Z,35.89
2024-01-10T04:17:00.257Z,35.89
2024-01-10T04:18:00.308Z,35.85
2024-01-10T04:19:00.456Z,35.83
2024-01-10T04:20:00.408Z,35.83
2024-01-10T04:21:00.428Z,35.78
2024-01-10T04:22:00.446Z,35.78
2024-01-10T04:23:00.561Z,35.76
2024-01-10T04:24:00.544Z,35.72
2024-01-10T04:25:00.587Z,35.69
2024-01-10T04:26:00.655Z,35.71
2024-01-10T04:27:00.662Z,35.68
2024-01-10T04:28:00.727Z,35.67
2024-01-10T04:29:00.861Z,35.65
2024-01-10T04:30:00.824Z,35.63
2024-01-10T04:31:00.933Z,35.60
2024-01-10T04:32:00.951Z,35.61
2024-01-10T04:33:01.074Z,35.58
2024-01-10T04:34:01.069Z,35.57
2024-01-10T04:35:01.150Z,35.60
2024-01-10T04:36:01.062Z,35.57
2024-01-10T04:37:01.097Z,35.54
2024-01-10T04:38:01.169Z,35.54
2024-01-10T04:39:01.185Z,35.51
2024-01-10T04:40:01.195Z,35.52
2024-01-10T04:41:01.244Z,35.50
2024-01-10T04:42:01.274Z,35.50
2024-01-10T04:43:01.319Z,35.46
2024-01-10T04:44:01.395Z,35.49
2024-01-10T04:45:01.378Z,35.48
2024-01-10T04:46:01.409Z,35.46
2024-01-10T04:47:01.503Z,35.46
2024-01-10T04:48:01.495Z,35.42
2024-01-10T04:49:01.585Z,35.45
2024-01-10T04:50:01.550Z,35.45
2024-01-10T04:51:01.554Z,35.46
2024-01-10T04:52:01.586Z,35.45
2024-01-10T04:53:01.763Z,35.47
2024-01-10T04:54:01.668Z,35.46
2024-01-10T04:55:01.686Z,35.42
2024-01-10T04:56:01.757Z,35.39
2024-01-10T04:57:01.737Z,35.41
2024-01-10T04:58:01.756Z,35.42
2024-01-10T04:59:01.960Z,35.41
2024-01-10T05:00:01.810Z,35.42
2024-01-10T05:01:01.836Z,35.44
2024-01-10T05:02:01.969Z,35.47
2024-01-10T05:03:09.372Z,35.52
2024-01-10T05:04:09.277Z,35.49
2024-01-10T05:05:09.407Z,35.47
2024-01-10T05:06:09.327Z,35.49
2024-01-10T05:07:09.265Z,35.49
2024-01-10T05:08:09.382Z,35.49
2024-01-10T05:09:09.268Z,35.49
2024-01-10T05:10:09.266Z,35.51
2024-01-10T05:11:09.314Z,35.48
2024-01-10T05:12:09.268Z,35.49
2024-01-10T05:13:09.261Z,35.48
2024-01-10T05:14:09.379Z,35.49
2024-01-10T05:15:09.254Z,35.48
2024-01-10T05:16:09.233Z,35.50
2024-01-10T05:17:09.256Z,35.49
2024-01-10T05:18:09.372Z,35.45
2024-01-10T05:19:09.354Z,35.47
2024-01-10T05:20:09.372Z,35.46
2024-01-10T05:21:09.313Z,35.48
2024-01-10T05:22:09.344Z,35.48
2024-01-10T05:23:09.422Z,35.48
2024-01-10T05:24:09.404Z,35.48
2024-01-10T05:25:09.459Z,35.51
2024-01-10T05:26:09.539Z,35.49
2024-01-10T05:27:09.508Z,35.51
2024-01-10T05:28:09.558Z,35.49
2024-01-10T05:29:09.651Z,35.49
2024-01-10T05:30:09.670Z,35.49
2024-01-10T05:31:09.722Z,35.50
2024-01-10T05:32:09.732Z,35.50
2024-01-10T05:33:09.757Z,35.50
2024-01-10T05:34:09.782Z,35.52
2024-01-10T05:35:09.808Z,35.50
2024-01-10T05:36:09.740Z,35.51
2024-01-10T05:37:09.809Z,35.50
2024-01-10T05:38:09.845Z,35.53
2024-01-10T05:39:09.898Z,35.52
2024-01-10T05:40:09.849Z,35.51
2024-01-10T05:41:10.073Z,35.50
2024-01-10T05:42:10.005Z,35.50
2024-01-10T05:43:09.944Z,35.54
2024-01-10T05:44:10.029Z,35.51
2024-01-10T05:45:09.948Z,35.51
2024-01-10T05:46:09.965Z,35.51
2024-01-10T05:47:10.046Z,35.51
2024-01-10T05:48:10.188Z,35.52
2024-01-10T05:49:10.240Z,35.53
2024-01-10T05:50:10.107Z,35.52
2024-01-10T05:51:10.107Z,35.51
2024-01-10T05:52:10.128Z,35.51
2024-01-10T05:53:10.219Z,35.51
2024-01-10T05:54:10.175Z,35.50
2024-01-10T05:55:10.184Z,35.52
2024-01-10T05:56:10.230Z,35.50
2024-01-10T05:57:10.226Z,35.50
2024-01-10T05:58:10.228Z,35.50
2024-01-10T05:59:10.317Z,35.49
2024-01-10T06:00:10.301Z,35.49
2024-01-10T06:01:10.368Z,35.52
2024-01-10T06:02:10.426Z,35.47
2024-01-10T06:03:10.411Z,35.46
2024-01-10T06:04:10.412Z,35.45
2024-01-10T06:05:10.449Z,35.46
2024-01-10T06:06:10.437Z,35.44
2024-01-10T06:07:10.397Z,35.41
2024-01-10T06:08:10.460Z,35.41
2024-01-10T06:09:10.438Z,35.39
2024-01-10T06:10:10.462Z,35.38
2024-01-10T06:11:11.004Z,35.38
2024-01-10T06:12:10.510Z,35.39
2024-01-10T06:13:10.531Z,35.39
2024-01-10T06:14:10.578Z,35.40
2024-01-10T06:15:10.574Z,35.39
2024-01-10T06:16:10.611Z,35.37
2024-01-10T06:17:10.676Z,35.38
2024-01-10T06:18:10.709Z,35.38
2024-01-10T06:19:10.748Z,35.38
2024-01-10T06:20:10.760Z,35.40
2024-01-10T06:21:10.745Z,35.38
2024-01-10T06:22:10.782Z,35.39
2024-01-10T06:23:10.846Z,35.40
2024-01-10T06:24:10.836Z,35.44
2024-01-10T06:25:10.864Z,35.43
2024-01-10T06:26:10.926Z,35.52
2024-01-10T06:27:10.901Z,35.60
2024-01-10T06:28:10.916Z,36.59
2024-01-10T06:29:10.939Z,37.01
2024-01-10T06:30:10.985Z,36.92
2024-01-10T06:31:12.627Z,36.60
2024-01-10T06:32:10.914Z,37.23
2024-01-10T06:33:10.921Z,37.30
2024-01-10T06:34:10.899Z,37.09
2024-01-10T06:35:10.991Z,37.14
2024-01-10T06:36:10.814Z,37.40
2024-01-10T06:37:11.421Z,37.87
2024-01-10T06:38:12.471Z,38.18
2024-01-10T06:39:10.823Z,38.30
2024-01-10T06:40:11.377Z,37.96
2024-01-10T06:41:10.798Z,37.85
2024-01-10T06:42:10.708Z,37.81
2024-01-10T06:43:10.680Z,37.86
2024-01-10T06:44:10.753Z,38.01
2024-01-10T06:45:10.697Z,37.96
2024-01-10T06:46:10.705Z,38.19
2024-01-10T06:47:10.628Z,38.18
2024-01-10T06:48:10.702Z,38.30
2024-01-10T06:49:10.591Z,38.49
2024-01-10T06:50:11.515Z,38.51
2024-01-10T06:51:10.545Z,38.46
2024-01-10T06:52:10.517Z,38.67
2024-01-10T06:53:10.531Z,38.56
2024-01-10T06:54:10.563Z,38.65
2024-01-10T06:55:10.662Z,38.73
2024-01-10T06:56:10.704Z,38.79
2024-01-10T06:57:10.660Z,38.81
2024-01-10T06:58:10.698Z,38.82
2024-01-10T06:59:10.986Z,38.86
2024-01-10T07:00:10.774Z,39.02
2024-01-10T07:01:11.432Z,39.02
2024-01-10T07:02:10.907Z,39.09
2024-01-10T07:03:10.915Z,39.04
2024-01-10T07:04:10.879Z,39.04
2024-01-10T07:05:11.086Z,39.11
2024-01-10T07:06:11.022Z,39.10
2024-01-10T07:07:12.961Z,39.16
2024-01-10T07:08:11.009Z,39.21
2024-01-10T07:09:10.989Z,39.37
2024-01-10T07:10:10.999Z,39.40
2024-01-10T07:11:11.063Z,39.43
2024-01-10T07:12:11.061Z,39.50
2024-01-10T07:13:11.149Z,39.59
2024-01-10T07:14:11.119Z,39.73
2024-01-10T07:15:11.099Z,39.74
2024-01-10T07:16:11.104Z,39.76
2024-01-10T07:17:11.163Z,39.74
2024-01-10T07:18:11.165Z,39.99
2024-01-10T07:19:11.085Z,39.87
2024-01-10T07:20:12.023Z,40.19
2024-01-10T07:21:11.053Z,39.56
2024-01-10T07:22:10.992Z,36.83
2024-01-10T07:23:10.986Z,34.33
2024-01-10T07:24:11.946Z,33.80
2024-01-10T07:25:10.942Z,32.83
2024-01-10T07:26:11.025Z,31.73
2024-01-10T07:27:10.917Z,31.07
2024-01-10T07:28:10.908Z,31.21
2024-01-10T07:29:10.990Z,30.60
2024-01-10T07:30:10.945Z,30.74
2024-01-10T07:31:11.021Z,31.89
2024-01-10T07:32:10.921Z,32.83
2024-01-10T07:33:11.054Z,33.70
2024-01-10T07:34:11.161Z,34.09
2024-01-10T07:35:11.124Z,34.44
2024-01-10T07:36:10.891Z,34.78
2024-01-10T07:37:10.898Z,35.01
2024-01-10T07:38:11.561Z,35.19
2024-01-10T07:39:10.970Z,35.39
2024-01-10T07:40:11.125Z,35.51
2024-01-10T07:41:11.133Z,35.72
2024-01-10T07:42:11.099Z,36.24
2024-01-10T07:43:11.122Z,35.96
2024-01-10T07:44:11.165Z,36.09
2024-01-10T07:45:11.175Z,36.28
2024-01-10T07:46:11.179Z,36.44
2024-01-10T07:47:11.270Z,36.57
2024-01-10T07:48:11.289Z,36.68
2024-01-10T07:49:11.233Z,36.76
2024-01-10T07:50:11.253Z,36.97
2024-01-10T07:51:11.247Z,37.12
2024-01-10T07:52:11.178Z,37.87
2024-01-10T07:53:11.216Z,37.54
2024-01-10T07:54:11.140Z,37.58
2024-01-10T07:55:11.117Z,37.70
2024-01-10T07:56:11.978Z,37.79
2024-01-10T07:57:11.962Z,37.97
2024-01-10T07:58:11.036Z,38.09
2024-01-10T07:59:11.089Z,38.18
2024-01-10T08:00:10.968Z,38.35
2024-01-10T08:01:10.997Z,38.45
2024-01-10T08:02:10.935Z,38.72
2024-01-10T08:03:10.878Z,38.76
2024-01-10T08:04:12.823Z,38.87
2024-01-10T08:05:10.955Z,38.97
2024-01-10T08:06:17.846Z,39.12
2024-01-10T08:07:11.757Z,39.19
2024-01-10T08:08:10.795Z,39.48
2024-01-10T08:09:10.685Z,39.58
2024-01-10T08:10:10.722Z,39.69
2024-01-10T08:11:10.659Z,39.69
2024-01-10T08:12:10.575Z,39.95
2024-01-10T08:13:10.550Z,40.04
2024-01-10T08:14:10.583Z,40.40
2024-01-10T08:15:10.501Z,40.36
2024-01-10T08:16:10.964Z,41.01
2024-01-10T08:17:10.560Z,40.54
2024-01-10T08:18:10.563Z,40.47
2024-01-10T08:19:10.579Z,40.51
2024-01-10T08:20:10.697Z,40.57
2024-01-10T08:21:10.554Z,40.55
2024-01-10T08:22:10.561Z,40.64
2024-01-10T08:23:10.546Z,40.63
2024-01-10T08:24:10.528Z,40.74
2024-01-10T08:25:10.530Z,40.87
2024-01-10T08:26:10.737Z,41.08
2024-01-10T08:27:10.568Z,41.14
2024-01-10T08:28:10.598Z,41.52
2024-01-10T08:29:10.680Z,41.59
2024-01-10T08:30:10.652Z,42.02
2024-01-10T08:31:10.683Z,41.80
2024-01-10T08:32:10.680Z,41.97
2024-01-10T08:33:10.717Z,41.98
2024-01-10T08:34:10.674Z,42.12
2024-01-10T08:35:11.055Z,42.33
2024-01-10T08:36:10.649Z,42.22
2024-01-10T08:37:10.687Z,42.41
2024-01-10T08:38:10.766Z,42.50
2024-01-10T08:39:11.476Z,42.54
2024-01-10T08:40:10.736Z,42.70
2024-01-10T08:41:10.784Z,42.76
2024-01-10T08:42:10.746Z,42.83
2024-01-10T08:43:10.762Z,42.98
2024-01-10T08:44:10.803Z,42.99
2024-01-10T08:45:10.794Z,43.15
2024-01-10T08:46:10.879Z,43.28
2024-01-10T08:47:10.925Z,43.25
2024-01-10T08:48:11.283Z,43.38
2024-01-10T08:49:10.958Z,43.52
2024-01-10T08:50:11.033Z,43.62
2024-01-10T08:51:10.943Z,43.73
2024-01-10T08:52:10.990Z,43.77
2024-01-10T08:53:11.052Z,43.94
2024-01-10T08:54:11.053Z,44.05
2024-01-10T08:55:13.396Z,44.09
2024-01-10T08:56:11.084Z,44.25
2024-01-10T08:57:10.993Z,44.27
2024-01-10T08:58:10.945Z,44.44
2024-01-10T08:59:10.923Z,44.45
2024-01-10T09:00:10.870Z,44.61
2024-01-10T09:01:10.884Z,44.63
2024-01-10T09:02:10.843Z,44.60
2024-01-10T09:03:10.801Z,44.65
2024-01-10T09:04:10.749Z,44.63
2024-01-10T09:05:10.755Z,44.73
2024-01-10T09:06:11.881Z,44.82
2024-01-10T09:07:10.713Z,45.33
2024-01-10T09:08:10.578Z,44.99
2024-01-10T09:09:10.506Z,45.27
2024-01-10T09:10:10.458Z,45.45
2024-01-10T09:11:10.553Z,43.62
2024-01-10T09:12:10.377Z,39.59
2024-01-10T09:13:10.402Z,35.40
2024-01-10T09:14:10.608Z,34.41
2024-01-10T09:15:10.267Z,33.28
2024-01-10T09:16:10.233Z,33.07
2024-01-10T09:17:10.315Z,32.81
2024-01-10T09:18:10.264Z,33.42
2024-01-10T09:19:11.875Z,34.48
2024-01-10T09:20:11.002Z,34.82
2024-01-10T09:21:10.212Z,35.15
2024-01-10T09:22:10.993Z,35.53
2024-01-10T09:23:10.111Z,35.23
2024-01-10T09:24:18.242Z,35.67
2024-01-10T09:25:11.076Z,35.70
2024-01-10T09:26:10.104Z,35.69
2024-01-10T09:27:10.916Z,35.64
2024-01-10T09:28:09.963Z,35.62
2024-01-10T09:29:09.987Z,35.60
2024-01-10T09:30:10.212Z,35.65
2024-01-10T09:31:09.965Z,35.70
2024-01-10T09:32:09.868Z,35.67
2024-01-10T09:33:09.950Z,35.65
2024-01-10T09:34:09.877Z,35.66
2024-01-10T09:35:09.967Z,35.61
2024-01-10T09:36:09.705Z,35.65
2024-01-10T09:37:09.674Z,35.62
2024-01-10T09:38:09.650Z,35.59
2024-01-10T09:39:09.592Z,35.62
2024-01-10T09:40:09.647Z,35.64
2024-01-10T09:41:09.553Z,35.64
2024-01-10T09:42:09.488Z,35.63
2024-01-10T09:43:09.459Z,35.60
2024-01-10T09:44:09.473Z,35.55
2024-01-10T09:45:09.450Z,35.58
2024-01-10T09:46:09.925Z,35.58
2024-01-10T09:47:09.364Z,35.57
2024-01-10T09:48:10.454Z,35.57
2024-01-10T09:49:09.362Z,35.57
2024-01-10T09:50:10.138Z,35.57
2024-01-10T09:51:09.243Z,35.57
2024-01-10T09:52:09.174Z,35.57
2024-01-10T09:53:09.262Z,35.54
2024-01-10T09:54:09.109Z,35.54
2024-01-10T09:55:10.009Z,35.52
2024-01-10T09:56:09.065Z,35.54
2024-01-10T09:57:09.008Z,35.58
2024-01-10T09:58:08.966Z,35.53
2024-01-10T09:59:08.970Z,35.54
2024-01-10T10:00:08.892Z,35.52
2024-01-10T10:01:08.939Z,35.53
2024-01-10T10:02:08.920Z,35.52
2024-01-10T10:03:08.839Z,35.51
2024-01-10T10:04:09.027Z,35.53
2024-01-10T10:05:08.848Z,35.54
2024-01-10T10:06:09.616Z,35.51
2024-01-10T10:07:08.764Z,35.51
2024-01-10T10:08:08.733Z,35.50
2024-01-10T10:09:08.632Z,35.48
2024-01-10T10:10:08.632Z,35.46
2024-01-10T10:11:09.554Z,35.48
2024-01-10T10:12:09.440Z,35.45
2024-01-10T10:13:08.622Z,35.47
2024-01-10T10:14:08.638Z,35.46
2024-01-10T10:15:08.596Z,35.43
2024-01-10T10:16:09.543Z,35.43
2024-01-10T10:17:08.617Z,35.43
2024-01-10T10:18:08.642Z,35.44
2024-01-10T10:19:08.581Z,35.43
2024-01-10T10:20:08.690Z,35.44
2024-01-10T10:21:08.575Z,35.42
2024-01-10T10:22:09.540Z,35.42
2024-01-10T10:23:09.548Z,35.45
2024-01-10T10:24:08.557Z,35.46
2024-01-10T10:25:08.846Z,35.46
2024-01-10T10:26:08.564Z,35.44
2024-01-10T10:27:08.523Z,35.45
2024-01-10T10:28:13.141Z,35.46
2024-01-10T10:29:09.653Z,35.46
2024-01-10T10:30:08.437Z,35.46
2024-01-10T10:31:08.396Z,35.45
2024-01-10T10:32:09.069Z,35.50
2024-01-10T10:33:09.157Z,35.50
2024-01-10T10:34:08.316Z,35.52
2024-01-10T10:35:12.347Z,35.52
2024-01-10T10:36:09.301Z,35.53
2024-01-10T10:37:08.194Z,35.54
2024-01-10T10:38:08.213Z,35.55
2024-01-10T10:39:08.145Z,35.55
2024-01-10T10:40:08.125Z,35.56
2024-01-10T10:41:08.106Z,35.56
2024-01-10T10:42:09.056Z,35.59
2024-01-10T10:43:08.021Z,35.62
2024-01-10T10:44:08.032Z,35.61
2024-01-10T10:45:07.964Z,35.63
2024-01-10T10:46:07.923Z,35.64
2024-01-10T10:47:12.322Z,35.63
2024-01-10T10:48:08.962Z,35.69
2024-01-10T10:49:07.945Z,35.66
2024-01-10T10:50:07.795Z,35.67
2024-01-10T10:51:07.749Z,35.72
2024-01-10T10:52:07.718Z,35.70
2024-01-10T10:53:07.701Z,35.70
2024-01-10T10:54:07.665Z,35.73
2024-01-10T10:55:07.639Z,35.72
2024-01-10T10:56:07.601Z,35.73
2024-01-10T10:57:08.453Z,35.75
2024-01-10T10:58:11.322Z,35.76
2024-01-10T10:59:07.540Z,35.75
2024-01-10T11:00:07.503Z,35.77
2024-01-10T11:01:07.470Z,35.78
2024-01-10T11:02:07.432Z,35.77
2024-01-10T11:03:07.378Z,35.78
2024-01-10T11:04:07.377Z,35.77
2024-01-10T11:05:07.482Z,35.78
2024-01-10T11:06:07.527Z,35.79
2024-01-10T11:07:07.701Z,35.79
2024-01-10T11:08:07.257Z,35.82
2024-01-10T11:09:08.021Z,35.83
2024-01-10T11:10:07.182Z,37.14
2024-01-10T11:11:07.164Z,36.93
2024-01-10T11:12:07.116Z,34.79
2024-01-10T11:13:07.126Z,31.42
2024-01-10T11:14:07.200Z,29.96
2024-01-10T11:15:07.144Z,29.09
2024-01-10T11:16:07.156Z,29.05
2024-01-10T11:17:07.222Z,29.04
2024-01-10T11:18:07.300Z,29.57
2024-01-10T11:19:07.354Z,29.04
2024-01-10T11:20:07.995Z,29.37
2024-01-10T11:21:07.388Z,29.36
2024-01-10T11:22:07.416Z,29.09
2024-01-10T11:23:08.078Z,29.51
2024-01-10T11:24:07.506Z,29.36
2024-01-10T11:25:07.533Z,29.38
2024-01-10T11:26:09.616Z,29.44
2024-01-10T11:27:07.603Z,29.97
2024-01-10T11:28:08.269Z,29.25
2024-01-10T11:29:07.678Z,29.11
2024-01-10T11:30:07.763Z,29.03
2024-01-10T11:31:07.786Z,29.00
2024-01-10T11:32:07.769Z,29.44
2024-01-10T11:33:07.775Z,29.03
2024-01-10T11:34:07.786Z,29.46
2024-01-10T11:35:07.868Z,29.00
2024-01-10T11:36:07.771Z,28.72
2024-01-10T11:37:07.772Z,28.61
2024-01-10T11:38:07.785Z,28.77
2024-01-10T11:39:07.774Z,28.80
2024-01-10T11:40:07.773Z,28.88
2024-01-10T11:41:08.449Z,29.01
2024-01-10T11:42:08.587Z,29.26
2024-01-10T11:43:07.718Z,29.02
2024-01-10T11:44:07.765Z,28.61
2024-01-10T11:45:07.709Z,29.02
2024-01-10T11:46:07.758Z,29.01
2024-01-10T11:47:07.831Z,29.69
2024-01-10T11:48:07.958Z,30.22
2024-01-10T11:49:08.048Z,29.89
2024-01-10T11:50:07.953Z,29.36
2024-01-10T11:51:07.984Z,29.03
2024-01-10T11:52:08.027Z,28.84
2024-01-10T11:53:08.135Z,29.51
2024-01-10T11:54:08.110Z,29.58
2024-01-10T11:55:08.153Z,29.22
2024-01-10T11:56:09.140Z,29.23
2024-01-10T11:57:08.248Z,29.35
2024-01-10T11:58:08.257Z,29.23
2024-01-10T11:59:08.337Z,29.14
2024-01-10T12:00:08.563Z,29.04
2024-01-10T12:01:08.476Z,28.74
2024-01-10T12:02:08.534Z,29.19
2024-01-10T12:03:08.487Z,29.27
2024-01-10T12:04:14.571Z,30.04
2024-01-10T12:05:10.162Z,30.08
2024-01-10T12:06:10.428Z,29.94
2024-01-10T12:07:08.596Z,30.31
2024-01-10T12:08:08.492Z,30.51
2024-01-10T12:09:08.431Z,30.65
2024-01-10T12:10:08.480Z,30.85
2024-01-10T12:11:08.435Z,30.92
2024-01-10T12:12:08.376Z,31.07
2024-01-10T12:13:08.393Z,30.95
2024-01-10T12:14:08.467Z,31.00
2024-01-10T12:15:10.027Z,31.14
2024-01-10T12:16:08.545Z,31.29
2024-01-10T12:17:08.637Z,31.32
2024-01-10T12:18:08.604Z,31.25
2024-01-10T12:19:08.674Z,31.34
2024-01-10T12:20:08.654Z,31.37
2024-01-10T12:21:08.680Z,31.37
2024-01-10T12:22:09.234Z,31.41
2024-01-10T12:23:08.774Z,31.39
2024-01-10T12:24:08.773Z,31.42
2024-01-10T12:25:08.809Z,31.42
2024-01-10T12:26:08.993Z,31.48
2024-01-10T12:27:08.882Z,31.52
2024-01-10T12:28:08.921Z,31.53
2024-01-10T12:29:08.973Z,31.58
2024-01-10T12:30:09.113Z,31.62
2024-01-10T12:31:09.043Z,31.59
2024-01-10T12:32:09.227Z,31.62
2024-01-10T12:33:09.222Z,31.64
2024-01-10T12:34:09.264Z,31.70
2024-01-10T12:35:09.258Z,31.75
2024-01-10T12:36:09.237Z,31.80
2024-01-10T12:37:09.258Z,31.77
2024-01-10T12:38:09.339Z,31.78
2024-01-10T12:39:09.344Z,31.81
2024-01-10T12:40:11.208Z,31.84
2024-01-10T12:41:09.476Z,31.91
2024-01-10T12:42:09.465Z,31.87
2024-01-10T12:43:09.511Z,31.97
2024-01-10T12:44:09.605Z,31.98
2024-01-10T12:45:09.589Z,32.01
2024-01-10T12:46:09.641Z,32.01
2024-01-10T12:47:10.638Z,32.02
2024-01-10T12:48:10.564Z,32.04
2024-01-10T12:49:09.887Z,32.05
2024-01-10T12:50:09.895Z,32.12
2024-01-10T12:51:09.908Z,32.14
2024-01-10T12:52:14.092Z,32.11
2024-01-10T12:53:10.942Z,32.13